AirNav   ProFlight Series 2 Aviation Headset
 
 658 users online  

69FL Griffin Heliport
Marianna, Florida, USA

GOING TO MARIANNA?


FAA INFORMATION EFFECTIVE 16 JULY 2020

Location

FAA Identifier: 69FL
Lat/Long: 30-46-08.5000N 085-04-51.1000W
30-46.141667N 085-04.851667W
30.7690278,-85.0808611
(estimated)
Elevation: 100 ft. / 30 m (estimated)
From city: 5 miles E of MARIANNA, FL
Time zone: UTC -5 (UTC -6 during Standard Time)
Zip code: 32442

Heliport Operations

Heliport use: Private use. Permission required prior to landing
Activation date: 09/2014
Control tower: no
ARTCC: JACKSONVILLE CENTER
FSS: GAINESVILLE FLIGHT SERVICE STATION
Attendance: 0700-1900
Wind indicator: yes
Segmented circle: no

Heliport Communications

WX ASOS at MAI (7 nm NW): 133.525 (850-482-6082)
WX AWOS-AV at F95 (17 nm S): 119.350 (850-674-1347)
WX AWOS-3PT at 17J (18 nm NE): 119.675 (229-524-0001)

Nearby radio navigation aids

VOR radial/distance  VOR name  Freq  Var
MAIr115/2.5MARIANNA VORTAC114.0000E
RRSr148/35.8WIREGRASS VORTAC111.6002E
SZWr287/38.7SEMINOLE VORTAC117.5002E

 
NDB name  Hdg/Dist  Freq  Var  ID
SOYYA132/9.632902WSMY ... -- -.--
WILLIS251/31.135904WLYZ .-.. -.-- --..

Heliport Services

Runway Information

Helipad H1

Dimensions: 450 x 400 ft. / 137 x 122 m
Surface: turf
Traffic pattern: leftleft

Heliport Ownership and Management from official FAA records

Ownership: Privately-owned
Owner: JOHN B GRIFFIN
6189 GLENMORE CT
MARIANNA, FL 32446
Phone 850-209-2573
Manager: JOHN B GRIFFIN
6189 GLENMORE CT
MARIANNA, FL 32446
Phone 850-209-2573

Heliport Operational Statistics

Aircraft based on the field: 3
Helicopters: 1
Ultralights: 2
    

Additional Remarks

50 FT HIGH TREES S OF HELI
30 FT HIGH POWERLINES N AND E OF HELI
4 FT FENCE NEXT TO TD AREA
FOR CD CTC CAIRNS APCH AT 334-255-8402 OR 334-255-8460, WHEN APCH CLSD CTC JACKSONVILLE ARTCC AT 904-845-1592.

Instrument Procedures

There are no published instrument procedures at 69FL.

Some nearby airports with instrument procedures:

KMAI - Marianna Municipal Airport (7 nm NW)
17J - Donalsonville Municipal Airport (18 nm NE)
KBGE - Decatur County Industrial Air Park (26 nm NE)
1J0 - Tri-County Airport (27 nm W)
2J9 - Quincy Municipal Airport (29 nm E)
 
Loc | Ops | Rwys | IFR | FBO | Links
Com | Nav | Svcs | Stats | Notes

Continental Services
AirBoss

 
Aerial photo
No photo
 
Airport distance calculator
Flying to Griffin Heliport? Find the distance to fly.

From to 69FL

Sunrise and sunset
Times for 10-Aug-2020
 Local
(UTC-5)
 Zulu
(UTC)
Morning civil twilight05:4010:40
Sunrise06:0511:05
Sunset19:2600:26
Evening civil twilight19:5100:51

Current date and time
Zulu (UTC)  10-Aug-2020 11:31:55
Local (UTC-5)  10-Aug-2020 06:31:55
 
METAR
KMAI 
7nm NW 
101053Z AUTO 00000KT 10SM CLR 25/23 A3009 RMK AO2 SLP186 T02500233
K17J 
18nm NE 
101115Z AUTO 00000KT 10SM CLR 24/ A3010 RMK AO2 T0236////
TAF
KDHN 
38nm NW 
100526Z 1006/1106 23005KT P6SM SCT050 FM101500 29005KT P6SM SCT050 TEMPO 1021/1024 2SM TSRA SCT030CB BKN050 FM110000 VRB04KT P6SM VCSH BKN060
KTLH 
44nm SE 
100526Z 1006/1106 26004KT P6SM FEW045 SCT250 FM101800 22006KT P6SM SCT050 TEMPO 1021/1101 2SM TSRA SCT030CB BKN050 FM110100 VRB06KT 6SM -SHRA VCTS BKN050CB BKN150
KECP 
44nm SW 
100526Z 1006/1106 20005KT P6SM SCT050 FM101600 22007KT P6SM VCTS SCT045CB TEMPO 1017/1021 21010KT 3SM TSRA SCT030CB BKN050
KOZR 
45nm NW 
100800Z 1008/1114 26008KT 9999 FEW030 QNH3004INS BECMG 1019/1020 18010KT 9000 -SHRA BKN040 QNH3000INS TEMPO 1021/1024 VRB15G25KT 4800 -TSRA BKN035CB BECMG 1101/1102 18006KT 9999 NSW SCT040 QNH3000INS TX33/1020Z TN23/1011Z
NOTAMs
Click for the latest NOTAMs
NOTAMs are issued by the DoD/FAA and will open in a separate window not controlled by AirNav.

 

 
 

Would you like to see your business listed on this page?

 If your business provides an interesting product or service to pilots, flight crews, aircraft, or users of the Griffin Heliport, you should consider listing it here.  To start the listing process, click on the button below
 
Add a business
 

Other Pages about Griffin Heliport

Update a link
 
Copyright © AirNav, LLC. All rights reserved. Privacy Policy  Contact